»·PEaware :: N21705 KSNA-KSBD

N21705 :: KSNA-KSBD

FLIGHT INFORMATION

Flight Status: Arrived
Operator: Privately registered:
United States
More flights under this callsign
Pilot: Anonymous 33140 (33140)
Aircraft: CESSNA 172 SKYHAWK
(C172)
More flights by this aircraft type
Origin: KSNA John Wayne-Orange Co
United States
Destination: KSBD San Bernardino Intl
United States
More flights between these airports :: More routes between these airports
Route: SLI V8 PDZ
File this flight plan on PilotEdge
Remarks: TEC route CSTP13
Altitude:
(Current/Filed)
5,000ft
Speed:
(Current/Filed)
110kts
Departed: 15-Jan-21 11:50 AM
Arrived: 15-Jan-21 12:19 PM
Distance/Time
Traveled:
40nm/0:28
Distance/Time
To Go:
Arrived

Flight Plot

Page will automatically refresh every two minutes.


Map Options




Map Legend


Flown Route
Filed Route
Departure Airport
Arrival Airport
Navaid (VOR, NDB)
Fix

Horizontal Profiles

Position Reports

Time Latitude Longitude Heading Altitude Ground
Speed
15-Jan-21 11:29 33.672595 -117.873027 249 55ft 0kts
15-Jan-21 11:30 33.672595 -117.873027 249 55ft 0kts
15-Jan-21 11:31 33.672595 -117.873027 249 55ft 0kts
15-Jan-21 11:32 33.672595 -117.873027 249 55ft 0kts
15-Jan-21 11:33 33.672595 -117.873027 249 55ft 0kts
15-Jan-21 11:34 33.672595 -117.873027 249 55ft 0kts
15-Jan-21 11:35 33.672595 -117.873027 249 55ft 0kts
15-Jan-21 11:36 33.672595 -117.873027 249 55ft 0kts
15-Jan-21 11:37 33.672595 -117.873027 249 55ft 0kts
15-Jan-21 11:38 33.672595 -117.873027 249 55ft 0kts
15-Jan-21 11:39 33.672595 -117.873027 249 55ft 0kts
15-Jan-21 11:40 33.672595 -117.873027 249 55ft 0kts
15-Jan-21 11:41 33.672595 -117.873027 249 55ft 0kts
15-Jan-21 11:42 33.672715 -117.872849 116 55ft 3kts
15-Jan-21 11:43 33.674676 -117.870986 27 54ft 13kts
15-Jan-21 11:44 33.678463 -117.868592 27 50ft 19kts
15-Jan-21 11:45 33.681246 -117.866526 111 43ft 0kts
15-Jan-21 11:46 33.681246 -117.866526 111 43ft 0kts
15-Jan-21 11:47 33.681246 -117.866526 111 43ft 0kts
15-Jan-21 11:48 33.681234 -117.866489 112 43ft 4kts
15-Jan-21 11:49 33.671746 -117.871371 208 197ft 81kts
15-Jan-21 11:50 33.652830 -117.886170 229 1013ft 82kts
15-Jan-21 11:51 33.637861 -117.907248 229 1765ft 86kts
15-Jan-21 11:52 33.620344 -117.931844 229 2363ft 92kts
15-Jan-21 11:53 33.621248 -117.951603 13 3012ft 98kts
15-Jan-21 11:54 33.645555 -117.935906 29 3632ft 99kts
15-Jan-21 11:55 33.669779 -117.919244 29 4213ft 100kts
15-Jan-21 11:56 33.694171 -117.902471 29 4758ft 101kts
15-Jan-21 11:57 33.722095 -117.883371 29 4817ft 124kts
15-Jan-21 11:58 33.752734 -117.862578 29 4816ft 127kts
15-Jan-21 11:59 33.783717 -117.841583 29 4816ft 128kts
15-Jan-21 12:00 33.813951 -117.821035 29 4814ft 123kts
15-Jan-21 12:01 33.843870 -117.800627 29 4813ft 123kts
15-Jan-21 12:02 33.858255 -117.765829 80 4815ft 122kts
15-Jan-21 12:03 33.867377 -117.726128 73 4814ft 122kts
15-Jan-21 12:04 33.877567 -117.686887 73 4817ft 123kts
15-Jan-21 12:05 33.887933 -117.647544 72 4814ft 123kts
15-Jan-21 12:06 33.898367 -117.608081 72 4777ft 125kts
15-Jan-21 12:07 33.908798 -117.568436 73 4768ft 123kts
15-Jan-21 12:08 33.918800 -117.528934 73 4768ft 123kts
15-Jan-21 12:09 33.937413 -117.495608 38 4768ft 123kts
15-Jan-21 12:10 33.964856 -117.470873 36 4768ft 123kts
15-Jan-21 12:11 33.991099 -117.444063 42 4769ft 124kts
15-Jan-21 12:12 34.016209 -117.415710 43 4769ft 123kts
15-Jan-21 12:13 34.041020 -117.386940 44 4768ft 123kts
15-Jan-21 12:15 34.065635 -117.358153 44 4768ft 123kts
15-Jan-21 12:16 34.077352 -117.321157 81 4040ft 113kts
15-Jan-21 12:17 34.081376 -117.286074 80 2995ft 94kts
15-Jan-21 12:18 34.089146 -117.255779 71 1461ft 93kts
15-Jan-21 12:19 34.094318 -117.242139 355 1105ft 0kts
15-Jan-21 12:20 34.094318 -117.242139 355 1105ft 0kts
15-Jan-21 12:21 34.095455 -117.242144 1 1103ft 12kts
15-Jan-21 12:22 34.096438 -117.242403 268 1103ft 0kts

Navigation Log

Ident Type
Flight plan parsing failed, navigation log unavailable